Terminal Aerodrome Forecast
Issued by NWS Albany, NY

Home | Current Version | Previous Version | Text Only | Print | Product List | Glossary On
Versions: 1 2 3 4 5 6 7 8 9 10 11 12 13 14 15 16 17 18 19 20
000
FTUS41 KALY 200500 AAA
TAFGFL
TAF AMD
KGFL 200515Z 2005/2024 00000KT P6SM BKN070
      TEMPO 2007/2009 2SM BR SCT008
     FM200900 00000KT 2SM BR BKN008
     FM201200 16005KT P6SM FEW030 SCT060
     FM201700 16005KT P6SM VCSH SCT030 BKN060 OVC120=

USA.gov is the U.S. government's official web portal to all federal, state and local government web resources and services.